Time;durP1;ratioP1;P1;durP2;ratioP2;P2;SDS_P1;SDS_P2;PMS_P1;PMS_P2;Temp;Humidity;BMP_temperature;BMP_pressure;BME280_temperature;BME280_humidity;BME280_pressure;Samples;Min_cycle;Max_cycle;Signal;HPM_P1;HPM_P2
2021/05/20 00:00:44;;;;;;;1.42;0.88;;;10.80;99.90;;;;;;4992223;28;20661;-72
2021/05/20 00:03:09;;;;;;;1.75;0.63;;;10.90;99.90;;;;;;4974672;28;20073;-76
2021/05/20 00:05:36;;;;;;;1.27;0.70;;;10.90;99.90;;;;;;4984744;28;20479;-76
2021/05/20 00:08:01;;;;;;;0.80;0.60;;;10.90;99.90;;;;;;4982533;28;20033;-75
2021/05/20 00:10:27;;;;;;;0.80;0.60;;;10.80;99.90;;;;;;4977534;28;20027;-76
2021/05/20 00:12:53;;;;;;;3.97;0.82;;;10.80;99.90;;;;;;4978444;28;20082;-77
2021/05/20 00:15:19;;;;;;;0.88;0.60;;;10.80;99.90;;;;;;4979906;28;20042;-75
2021/05/20 00:17:44;;;;;;;3.40;0.85;;;10.90;99.90;;;;;;4981650;28;20034;-75
2021/05/20 00:20:11;;;;;;;0.50;0.50;;;10.80;99.90;;;;;;4981594;28;20027;-76
2021/05/20 00:22:36;;;;;;;0.82;0.63;;;10.80;99.90;;;;;;4989429;28;20050;-75
2021/05/20 00:25:03;;;;;;;3.92;0.80;;;10.80;99.90;;;;;;4984645;28;20081;-75
2021/05/20 00:27:29;;;;;;;2.17;0.60;;;10.80;99.90;;;;;;4991718;28;20023;-76
2021/05/20 00:29:55;;;;;;;1.38;0.65;;;10.70;99.90;;;;;;4982831;28;20023;-75
2021/05/20 00:32:21;;;;;;;1.30;0.90;;;10.80;99.90;;;;;;5002196;28;20050;-75
2021/05/20 00:34:46;;;;;;;0.90;0.90;;;10.80;99.90;;;;;;4995668;28;20553;-76
2021/05/20 00:37:12;;;;;;;3.00;0.73;;;10.80;99.90;;;;;;5000998;28;20113;-75
2021/05/20 00:39:37;;;;;;;1.73;1.10;;;10.80;99.90;;;;;;4986219;28;20026;-74
2021/05/20 00:42:11;;;;;;;1.13;0.60;;;10.80;99.90;;;;;;5008164;28;20039;-76
2021/05/20 00:45:06;;;;;;;1.48;0.70;;;10.70;99.90;;;;;;4988551;28;20031;-76
2021/05/20 00:47:33;;;;;;;1.40;0.70;;;10.70;99.90;;;;;;4994064;28;20031;-75
2021/05/20 00:50:01;;;;;;;1.38;0.80;;;10.60;99.90;;;;;;4986805;28;20038;-75
2021/05/20 00:52:27;;;;;;;0.55;0.55;;;10.60;99.90;;;;;;5006535;28;20034;-75
2021/05/20 00:54:58;;;;;;;1.52;0.80;;;10.60;99.90;;;;;;4990293;28;20031;-75
2021/05/20 00:57:25;;;;;;;0.82;0.73;;;10.50;99.90;;;;;;4994151;28;20034;-75
2021/05/20 00:59:52;;;;;;;1.00;0.85;;;10.50;99.90;;;;;;4995825;28;20090;-74
2021/05/20 01:02:19;;;;;;;1.75;0.90;;;10.50;99.90;;;;;;4994808;28;20022;-74
2021/05/20 01:04:45;;;;;;;2.10;0.80;;;10.50;99.90;;;;;;4992796;28;20026;-74
2021/05/20 01:07:11;;;;;;;2.05;0.60;;;10.50;99.90;;;;;;4999755;28;20038;-74
2021/05/20 01:09:37;;;;;;;1.88;0.80;;;10.50;99.90;;;;;;4991037;28;20026;-76
2021/05/20 01:12:04;;;;;;;1.65;0.85;;;10.50;99.90;;;;;;4982327;28;20466;-75
2021/05/20 01:14:36;;;;;;;0.88;0.65;;;10.40;99.90;;;;;;4985063;28;20106;-76
2021/05/20 01:17:02;;;;;;;1.60;0.93;;;10.50;99.90;;;;;;4979637;28;20023;-75
2021/05/20 01:19:28;;;;;;;4.10;0.77;;;10.50;99.90;;;;;;4988976;28;20113;-77
2021/05/20 01:21:53;;;;;;;1.40;0.95;;;10.50;99.90;;;;;;4985568;28;20050;-75
2021/05/20 01:24:19;;;;;;;1.67;0.80;;;10.50;99.90;;;;;;4985253;28;20039;-75
2021/05/20 01:26:45;;;;;;;0.68;0.68;;;10.50;99.90;;;;;;4996214;28;21163;-75
2021/05/20 01:29:11;;;;;;;1.20;0.70;;;10.40;99.90;;;;;;4983998;28;20030;-75
2021/05/20 01:31:37;;;;;;;0.82;0.60;;;10.40;99.90;;;;;;4977928;28;20031;-76
2021/05/20 01:34:02;;;;;;;0.75;0.50;;;10.50;99.90;;;;;;4989023;28;20111;-76
2021/05/20 01:36:29;;;;;;;1.55;0.68;;;10.40;99.90;;;;;;4985127;28;20447;-76
2021/05/20 01:38:59;;;;;;;0.80;0.60;;;10.30;99.90;;;;;;4971479;28;20057;-75
2021/05/20 01:41:25;;;;;;;0.73;0.68;;;10.20;99.90;;;;;;4989240;28;20077;-76
2021/05/20 01:43:51;;;;;;;1.17;0.70;;;10.10;99.90;;;;;;4977696;28;20030;-76
2021/05/20 01:46:16;;;;;;;1.73;0.90;;;10.10;99.90;;;;;;4978850;28;20078;-76
2021/05/20 01:48:44;;;;;;;0.80;0.70;;;10.00;99.90;;;;;;4982987;28;20030;-75
2021/05/20 01:51:12;;;;;;;1.33;0.70;;;9.90;99.90;;;;;;4990072;28;20061;-75
2021/05/20 01:53:40;;;;;;;0.98;0.65;;;9.90;1.00;;;;;;4979424;28;20038;-75
2021/05/20 01:56:07;;;;;;;1.85;0.90;;;9.80;1.00;;;;;;4978466;28;20030;-75
2021/05/20 01:58:34;;;;;;;1.10;0.60;;;9.70;1.00;;;;;;4982923;28;20123;-75
2021/05/20 02:01:00;;;;;;;1.30;0.73;;;9.80;1.00;;;;;;4977841;28;20372;-76
2021/05/20 02:03:26;;;;;;;1.00;0.70;;;9.70;1.00;;;;;;4977334;28;20490;-75
2021/05/20 02:05:53;;;;;;;1.45;0.77;;;9.70;1.00;;;;;;4984478;28;20051;-76
2021/05/20 02:08:19;;;;;;;2.70;0.68;;;9.70;1.00;;;;;;5002565;28;20022;-76
2021/05/20 02:10:45;;;;;;;1.20;0.95;;;9.70;1.00;;;;;;4987720;28;20549;-75
2021/05/20 02:13:11;;;;;;;1.30;0.60;;;9.70;1.00;;;;;;4989908;28;20027;-75
2021/05/20 02:15:37;;;;;;;1.23;0.57;;;9.70;1.00;;;;;;4989523;28;20082;-75
2021/05/20 02:18:04;;;;;;;0.70;0.60;;;9.80;1.00;;;;;;4978563;28;20120;-75
2021/05/20 02:20:30;;;;;;;1.00;0.85;;;9.80;1.00;;;;;;4978505;28;20603;-76
2021/05/20 02:22:55;;;;;;;2.67;0.95;;;9.80;1.00;;;;;;4985441;28;20062;-75
2021/05/20 02:25:21;;;;;;;0.70;0.70;;;9.90;1.00;;;;;;4980817;28;20524;-75
2021/05/20 02:27:47;;;;;;;0.77;0.60;;;9.90;1.00;;;;;;4978703;28;20030;-75
2021/05/20 02:30:15;;;;;;;2.80;0.82;;;9.80;1.00;;;;;;4977842;28;20621;-75
2021/05/20 02:32:41;;;;;;;1.85;0.80;;;9.80;1.00;;;;;;4980554;28;20019;-75
2021/05/20 02:35:07;;;;;;;1.98;0.80;;;9.90;1.00;;;;;;4993936;28;20058;-75
2021/05/20 02:37:33;;;;;;;0.80;0.80;;;9.90;1.00;;;;;;4979597;28;20392;-75
2021/05/20 02:39:59;;;;;;;1.45;0.85;;;9.90;1.00;;;;;;4991204;28;20080;-75
2021/05/20 02:42:25;;;;;;;1.08;0.95;;;9.90;1.00;;;;;;4984047;28;20046;-75
2021/05/20 02:44:51;;;;;;;1.40;0.93;;;9.90;1.00;;;;;;4980807;28;20052;-75
2021/05/20 02:47:17;;;;;;;1.98;0.90;;;10.00;1.00;;;;;;4984303;28;20027;-76
2021/05/20 02:49:45;;;;;;;0.93;0.60;;;10.00;1.00;;;;;;4983388;28;20154;-76
2021/05/20 02:52:10;;;;;;;1.58;0.90;;;10.00;1.00;;;;;;4980999;28;20427;-76
2021/05/20 02:54:37;;;;;;;1.45;0.82;;;10.00;1.00;;;;;;4981277;28;20032;-76
2021/05/20 02:57:07;;;;;;;2.55;0.65;;;10.00;1.00;;;;;;4983382;28;20058;-74
2021/05/20 02:59:33;;;;;;;1.33;0.80;;;10.00;1.00;;;;;;4967775;28;20117;-74
2021/05/20 03:02:04;;;;;;;2.35;0.93;;;10.00;1.00;;;;;;4977342;28;20038;-75
2021/05/20 03:04:32;;;;;;;4.95;0.90;;;10.10;1.00;;;;;;4974556;28;20035;-74
2021/05/20 03:06:58;;;;;;;0.88;0.73;;;10.10;1.00;;;;;;4981006;28;20543;-75
2021/05/20 03:09:24;;;;;;;1.08;0.80;;;10.00;1.00;;;;;;4975135;28;20030;-75
2021/05/20 03:11:50;;;;;;;1.08;0.93;;;10.00;1.00;;;;;;4982948;28;20349;-76
2021/05/20 03:14:15;;;;;;;0.98;0.55;;;10.00;1.00;;;;;;4977429;28;20034;-75
2021/05/20 03:16:41;;;;;;;1.95;0.77;;;10.00;1.00;;;;;;4976287;28;20129;-76
2021/05/20 03:19:07;;;;;;;4.13;0.95;;;10.00;1.00;;;;;;4984226;28;20035;-76
2021/05/20 03:21:32;;;;;;;3.80;0.70;;;9.90;1.00;;;;;;4993252;28;20069;-75
2021/05/20 03:23:58;;;;;;;1.52;0.70;;;9.90;1.00;;;;;;4991971;28;20098;-76
2021/05/20 03:26:24;;;;;;;1.58;0.90;;;9.80;1.00;;;;;;4975785;28;20049;-76
2021/05/20 03:28:49;;;;;;;1.15;0.90;;;9.80;1.00;;;;;;4977764;28;20030;-75
2021/05/20 03:31:15;;;;;;;0.85;0.85;;;9.90;1.00;;;;;;4991574;28;20027;-75
2021/05/20 03:33:41;;;;;;;2.42;0.88;;;9.80;1.00;;;;;;5004294;28;20019;-75
2021/05/20 03:36:07;;;;;;;1.27;0.70;;;9.90;1.00;;;;;;4982683;28;20026;-76
2021/05/20 03:38:33;;;;;;;2.40;0.90;;;9.80;1.00;;;;;;4990312;28;20065;-76
2021/05/20 03:41:00;;;;;;;1.35;0.80;;;9.80;1.00;;;;;;4995174;28;20490;-75
2021/05/20 03:43:35;;;;;;;1.50;1.08;;;9.70;1.00;;;;;;4992033;28;20045;-75
2021/05/20 03:46:01;;;;;;;1.42;0.98;;;9.80;1.00;;;;;;4995614;28;20045;-74
2021/05/20 03:48:27;;;;;;;3.72;0.90;;;9.80;1.00;;;;;;4994741;28;20026;-76
2021/05/20 03:50:54;;;;;;;1.08;0.98;;;9.80;1.00;;;;;;4979612;28;20042;-75
2021/05/20 03:53:19;;;;;;;1.35;0.93;;;9.80;1.00;;;;;;4987361;28;20026;-75
2021/05/20 03:55:47;;;;;;;1.95;0.70;;;9.80;1.00;;;;;;4977172;28;20501;-76
2021/05/20 03:58:13;;;;;;;1.77;0.85;;;9.80;1.00;;;;;;4977511;28;20030;-75
2021/05/20 04:00:39;;;;;;;1.85;0.98;;;9.70;1.00;;;;;;4976691;28;20026;-76
2021/05/20 04:03:24;;;;;;;1.00;0.70;;;9.70;1.00;;;;;;4987754;28;20030;-76
2021/05/20 04:05:51;;;;;;;2.35;0.68;;;9.70;1.00;;;;;;5001996;28;20034;-76
2021/05/20 04:08:17;;;;;;;3.90;0.85;;;9.70;1.00;;;;;;5016478;28;20031;-74
2021/05/20 04:10:42;;;;;;;0.77;0.75;;;9.70;1.00;;;;;;5016514;28;20029;-75
2021/05/20 04:13:08;;;;;;;1.20;0.80;;;9.70;1.00;;;;;;5022421;28;20069;-76
2021/05/20 04:15:34;;;;;;;1.90;1.15;;;9.80;1.00;;;;;;4983407;23;20042;-75
2021/05/20 04:17:59;;;;;;;3.22;0.90;;;9.90;1.00;;;;;;4977672;28;20038;-73
2021/05/20 04:20:25;;;;;;;0.85;0.68;;;9.90;1.00;;;;;;4993709;28;20042;-75
2021/05/20 04:22:51;;;;;;;1.00;0.70;;;9.90;1.00;;;;;;4973338;28;20043;-75
2021/05/20 04:25:17;;;;;;;2.50;0.73;;;10.00;1.00;;;;;;4968883;28;20069;-75
2021/05/20 04:27:43;;;;;;;0.80;0.68;;;10.10;1.00;;;;;;4962653;28;20047;-75
2021/05/20 04:30:09;;;;;;;0.63;0.60;;;10.20;1.00;;;;;;4983223;28;20068;-75
2021/05/20 04:32:35;;;;;;;0.60;0.60;;;10.30;1.00;;;;;;4998351;28;20022;-74
2021/05/20 04:35:00;;;;;;;1.15;0.60;;;10.50;1.00;;;;;;4995249;28;20046;-74
2021/05/20 04:37:26;;;;;;;1.65;0.68;;;10.60;1.00;;;;;;5003382;28;20042;-75
2021/05/20 04:39:51;;;;;;;3.47;0.70;;;10.70;1.00;;;;;;4996853;28;20030;-74
2021/05/20 04:42:17;;;;;;;0.73;0.40;;;11.00;99.90;;;;;;4990722;28;20117;-75
2021/05/20 04:44:43;;;;;;;3.35;0.65;;;11.50;99.90;;;;;;4986470;28;20023;-75
2021/05/20 04:47:09;;;;;;;0.93;0.57;;;12.00;99.90;;;;;;4980816;28;20024;-75
2021/05/20 04:49:34;;;;;;;1.45;0.65;;;12.10;99.90;;;;;;4970364;28;20395;-76
2021/05/20 04:52:00;;;;;;;0.60;0.50;;;12.20;99.90;;;;;;4975914;28;20491;-76
2021/05/20 04:54:25;;;;;;;2.65;0.52;;;12.00;99.90;;;;;;4972690;28;20038;-77
2021/05/20 04:56:51;;;;;;;0.63;0.60;;;12.30;99.90;;;;;;4969463;28;20030;-77
2021/05/20 04:59:16;;;;;;;1.77;0.77;;;12.30;99.90;;;;;;4973317;28;20027;-75
2021/05/20 05:01:42;;;;;;;1.80;0.50;;;12.20;99.90;;;;;;4974977;28;20126;-75
2021/05/20 05:04:07;;;;;;;0.65;0.60;;;12.40;99.90;;;;;;4972023;28;20081;-75
2021/05/20 05:06:33;;;;;;;0.55;0.50;;;12.90;99.90;;;;;;4963077;28;20026;-75
2021/05/20 05:08:58;;;;;;;1.15;0.55;;;13.30;99.90;;;;;;4973887;28;20054;-75
2021/05/20 05:11:24;;;;;;;0.32;0.30;;;13.70;99.90;;;;;;4962028;28;20019;-76
2021/05/20 05:13:50;;;;;;;0.45;0.40;;;13.70;99.90;;;;;;4973573;28;20027;-75
2021/05/20 05:16:15;;;;;;;2.47;1.17;;;13.60;99.90;;;;;;4973684;28;20054;-74
2021/05/20 05:18:41;;;;;;;1.77;0.57;;;13.30;99.90;;;;;;4971879;28;20484;-75
2021/05/20 05:21:06;;;;;;;0.77;0.40;;;13.00;99.90;;;;;;4974189;28;20057;-75
2021/05/20 05:23:32;;;;;;;2.35;0.55;;;12.90;99.90;;;;;;4975968;28;20097;-75
2021/05/20 05:25:58;;;;;;;0.52;0.50;;;12.70;99.90;;;;;;4974359;28;20455;-75
2021/05/20 05:28:23;;;;;;;2.38;0.60;;;12.30;99.90;;;;;;4975120;28;20062;-74
2021/05/20 05:30:49;;;;;;;0.70;0.70;;;12.10;99.90;;;;;;4974097;28;20057;-74
2021/05/20 05:33:15;;;;;;;1.55;0.55;;;12.00;99.90;;;;;;4972317;28;20031;-75
2021/05/20 05:35:40;;;;;;;2.72;0.60;;;11.90;99.90;;;;;;4970602;28;20548;-75
2021/05/20 05:38:06;;;;;;;0.50;0.50;;;11.80;99.90;;;;;;4975087;28;20042;-75
2021/05/20 05:40:31;;;;;;;2.72;0.80;;;11.70;99.90;;;;;;4969685;28;20502;-75
2021/05/20 05:42:57;;;;;;;0.65;0.60;;;11.90;99.90;;;;;;4974398;28;20499;-74
2021/05/20 05:45:22;;;;;;;2.22;0.55;;;11.90;99.90;;;;;;4972803;28;20019;-75
2021/05/20 05:47:48;;;;;;;0.50;0.47;;;11.70;99.90;;;;;;4968011;28;20045;-74
2021/05/20 05:50:15;;;;;;;0.40;0.40;;;11.80;99.90;;;;;;4969625;28;20030;-76
2021/05/20 05:52:41;;;;;;;1.00;0.63;;;11.80;99.90;;;;;;4970177;28;20558;-74
2021/05/20 05:55:08;;;;;;;1.83;0.88;;;11.90;99.90;;;;;;4967378;28;20039;-74
2021/05/20 05:57:34;;;;;;;3.97;0.52;;;12.00;99.90;;;;;;4975018;28;20031;-75
2021/05/20 05:59:59;;;;;;;1.55;0.55;;;11.90;99.90;;;;;;4969689;28;20034;-75
2021/05/20 06:02:26;;;;;;;0.55;0.40;;;12.00;99.90;;;;;;4972785;28;20030;-75
2021/05/20 06:04:52;;;;;;;1.23;0.68;;;12.10;99.90;;;;;;4974045;28;20480;-75
2021/05/20 06:07:18;;;;;;;1.27;0.45;;;12.20;99.90;;;;;;4971414;28;20059;-75
2021/05/20 06:09:45;;;;;;;1.77;0.50;;;12.30;99.90;;;;;;4968549;28;20040;-75
2021/05/20 06:12:12;;;;;;;2.13;0.70;;;12.40;99.90;;;;;;4972248;28;20452;-75
2021/05/20 06:14:40;;;;;;;0.43;0.43;;;12.60;99.90;;;;;;4974084;28;20062;-76
2021/05/20 06:17:07;;;;;;;0.85;0.60;;;12.60;99.90;;;;;;4972561;28;20411;-74
2021/05/20 06:19:33;;;;;;;2.50;0.75;;;12.50;99.90;;;;;;4971667;28;20023;-75
2021/05/20 06:21:58;;;;;;;1.15;0.82;;;12.50;99.90;;;;;;4973827;28;20102;-76
2021/05/20 06:24:24;;;;;;;1.20;0.63;;;12.70;99.90;;;;;;4974304;28;20372;-76
2021/05/20 06:26:49;;;;;;;0.82;0.45;;;12.90;99.90;;;;;;4972557;28;20500;-75
2021/05/20 06:29:15;;;;;;;1.55;0.65;;;12.80;99.90;;;;;;4969189;28;20034;-75
2021/05/20 06:31:41;;;;;;;0.40;0.40;;;12.90;99.90;;;;;;4972821;28;20034;-79
2021/05/20 06:34:06;;;;;;;2.85;0.70;;;12.90;99.90;;;;;;4975753;28;20041;-78
2021/05/20 06:36:32;;;;;;;1.15;0.90;;;13.00;99.90;;;;;;4978465;28;20023;-78
2021/05/20 06:38:58;;;;;;;1.13;0.50;;;12.90;99.90;;;;;;4977705;28;20035;-78
2021/05/20 06:41:23;;;;;;;2.00;0.80;;;12.90;99.90;;;;;;4978499;28;20050;-80
2021/05/20 06:43:49;;;;;;;0.60;0.57;;;12.50;99.90;;;;;;4977646;28;20074;-80
2021/05/20 06:46:15;;;;;;;0.77;0.70;;;12.20;99.90;;;;;;4975373;28;20019;-82
2021/05/20 06:48:40;;;;;;;1.35;0.75;;;12.50;99.90;;;;;;4974042;28;20038;-78
2021/05/20 06:51:06;;;;;;;1.10;0.65;;;12.80;99.90;;;;;;4977158;28;20027;-79
2021/05/20 06:53:35;;;;;;;1.15;1.02;;;13.40;99.90;;;;;;4974900;28;20059;-80
2021/05/20 06:56:02;;;;;;;0.68;0.68;;;13.80;99.90;;;;;;4974788;28;20474;-82
2021/05/20 07:01:12;;;;;;;1.55;0.75;;;14.10;99.90;;;;;;4973583;28;20526;-79
2021/05/20 07:03:38;;;;;;;1.65;0.70;;;14.20;93.90;;;;;;4979182;28;20038;-79
2021/05/20 07:06:04;;;;;;;0.55;0.55;;;14.20;99.70;;;;;;4980203;28;20027;-79
2021/05/20 07:08:29;;;;;;;0.70;0.50;;;14.40;76.60;;;;;;4970209;28;20516;-79
2021/05/20 07:10:56;;;;;;;2.42;0.68;;;14.20;35.20;;;;;;4959845;28;20111;-79
2021/05/20 07:13:22;;;;;;;0.50;0.50;;;13.80;56.90;;;;;;4960793;28;20035;-80
2021/05/20 07:15:49;;;;;;;1.80;1.20;;;13.80;99.90;;;;;;4969795;28;20054;-80
2021/05/20 07:18:15;;;;;;;0.70;0.70;;;13.40;99.90;;;;;;4970902;28;20086;-78
2021/05/20 07:20:41;;;;;;;2.15;0.88;;;13.10;99.90;;;;;;4979193;28;20022;-80
2021/05/20 07:23:10;;;;;;;0.73;0.60;;;13.20;99.90;;;;;;4977965;28;20041;-79
2021/05/20 07:25:36;;;;;;;1.00;0.60;;;12.90;99.90;;;;;;4968286;28;20027;-79
2021/05/20 07:28:02;;;;;;;0.98;0.70;;;12.90;99.90;;;;;;4966930;28;20045;-80
2021/05/20 07:30:28;;;;;;;0.70;0.68;;;12.90;99.90;;;;;;4960252;28;20023;-79
2021/05/20 07:32:53;;;;;;;1.75;0.68;;;13.20;99.90;;;;;;4973667;28;20042;-79
2021/05/20 07:35:19;;;;;;;0.65;0.65;;;13.60;99.90;;;;;;4977773;28;20027;-78
2021/05/20 07:37:44;;;;;;;1.17;0.90;;;14.00;99.90;;;;;;4970316;28;20031;-78
2021/05/20 07:40:11;;;;;;;2.45;0.80;;;14.40;69.70;;;;;;4961278;28;20508;-80
2021/05/20 07:42:36;;;;;;;0.80;0.57;;;14.50;6.60;;;;;;4960093;28;20024;-80
2021/05/20 07:45:03;;;;;;;2.15;0.52;;;14.90;1.00;;;;;;4967241;28;20094;-80
2021/05/20 07:47:29;;;;;;;0.77;0.70;;;14.90;1.00;;;;;;4965400;28;20022;-79
2021/05/20 07:49:54;;;;;;;1.13;0.93;;;15.00;1.00;;;;;;4971315;28;20019;-80
2021/05/20 07:52:21;;;;;;;0.50;0.50;;;15.10;99.90;;;;;;4960416;28;20127;-80
2021/05/20 07:54:47;;;;;;;0.70;0.70;;;15.30;99.90;;;;;;4960644;28;20384;-79
2021/05/20 07:57:13;;;;;;;1.85;0.70;;;15.20;99.90;;;;;;4960198;28;20033;-79
2021/05/20 07:59:38;;;;;;;1.27;0.80;;;14.70;99.90;;;;;;4957733;28;20106;-79
2021/05/20 08:04:33;;;;;;;1.15;0.73;;;14.20;1.00;;;;;;4959157;28;20043;-80
2021/05/20 08:07:07;;;;;;;0.75;0.70;;;14.40;1.00;;;;;;4957258;28;20035;-79
2021/05/20 08:09:37;;;;;;;2.13;1.42;;;14.60;1.00;;;;;;4974128;28;20031;-79
2021/05/20 08:12:03;;;;;;;1.35;1.10;;;14.50;1.00;;;;;;4970505;28;20106;-80
2021/05/20 08:14:29;;;;;;;1.38;0.60;;;14.70;99.90;;;;;;4971537;28;20026;-80
2021/05/20 08:16:54;;;;;;;0.90;0.57;;;14.90;99.90;;;;;;4972393;28;20027;-79
2021/05/20 08:19:20;;;;;;;0.50;0.50;;;14.90;99.90;;;;;;4976793;28;20037;-80
2021/05/20 08:21:46;;;;;;;1.02;0.60;;;15.10;99.90;;;;;;4974324;28;20027;-79
2021/05/20 08:24:11;;;;;;;1.20;0.70;;;14.90;1.00;;;;;;4971572;28;20110;-79
2021/05/20 08:26:37;;;;;;;1.05;0.60;;;14.70;99.90;;;;;;4974445;28;20121;-79
2021/05/20 08:29:03;;;;;;;2.90;0.80;;;14.40;99.90;;;;;;4973399;28;20037;-79
2021/05/20 08:31:29;;;;;;;0.98;0.70;;;14.40;99.90;;;;;;4975889;28;20483;-79
2021/05/20 08:33:56;;;;;;;1.45;0.63;;;14.30;99.90;;;;;;4976748;28;20054;-81
2021/05/20 08:36:22;;;;;;;0.50;0.50;;;13.80;1.00;;;;;;4970838;28;20035;-79
2021/05/20 08:38:48;;;;;;;0.95;0.65;;;13.60;1.00;;;;;;4971449;28;20123;-77
2021/05/20 08:41:18;;;;;;;0.63;0.63;;;13.70;1.00;;;;;;4991239;28;20023;-80
2021/05/20 08:43:45;;;;;;;1.77;0.60;;;13.80;1.00;;;;;;4974535;28;20068;-79
2021/05/20 08:46:10;;;;;;;0.77;0.77;;;13.70;1.00;;;;;;4969872;28;20302;-79
2021/05/20 08:48:36;;;;;;;1.58;0.50;;;13.70;1.00;;;;;;4976984;28;20035;-79
2021/05/20 08:51:03;;;;;;;1.05;0.65;;;13.90;1.00;;;;;;4962043;28;20035;-80
2021/05/20 08:53:28;;;;;;;0.65;0.65;;;13.60;1.00;;;;;;4973646;28;20089;-77
2021/05/20 08:55:54;;;;;;;1.05;0.82;;;13.90;1.00;;;;;;4967672;28;20035;-78
2021/05/20 08:58:25;;;;;;;0.82;0.60;;;13.90;1.00;;;;;;4975146;28;20050;-79
2021/05/20 09:00:51;;;;;;;0.50;0.50;;;14.30;99.90;;;;;;4970077;28;20094;-79
2021/05/20 09:03:16;;;;;;;1.58;1.20;;;14.90;8.90;;;;;;4973069;28;20066;-78
2021/05/20 09:05:43;;;;;;;2.35;0.50;;;15.00;99.90;;;;;;4973878;28;20422;-80
2021/05/20 09:08:11;;;;;;;1.35;0.57;;;15.90;1.00;;;;;;4975583;28;20028;-79
2021/05/20 09:10:40;;;;;;;1.05;0.68;;;15.90;99.90;;;;;;4972596;28;20055;-78
2021/05/20 09:13:12;;;;;;;1.23;0.82;;;16.40;99.90;;;;;;4977104;28;20034;-80
2021/05/20 09:15:48;;;;;;;2.40;0.70;;;16.10;1.00;;;;;;4973707;28;20023;-80
2021/05/20 09:18:16;;;;;;;0.35;0.35;;;16.60;99.90;;;;;;4974365;28;20035;-81
2021/05/20 09:20:45;;;;;;;1.15;0.50;;;16.70;99.90;;;;;;4977898;28;20019;-79
2021/05/20 09:23:16;;;;;;;2.15;0.93;;;16.40;99.90;;;;;;4993668;28;20280;-79
2021/05/20 09:25:43;;;;;;;0.95;0.43;;;17.10;99.90;;;;;;4974373;28;20018;-79
2021/05/20 09:28:10;;;;;;;0.40;0.30;;;16.50;1.00;;;;;;4976103;28;20043;-79
2021/05/20 09:30:38;;;;;;;2.45;0.60;;;15.40;1.00;;;;;;4975136;28;20084;-79
2021/05/20 09:33:08;;;;;;;1.48;0.70;;;15.50;1.00;;;;;;4978466;28;20027;-78
2021/05/20 09:35:40;;;;;;;0.45;0.40;;;15.50;99.90;;;;;;4972591;28;20049;-79
2021/05/20 09:38:16;;;;;;;1.05;0.60;;;15.20;32.40;;;;;;4977455;28;20027;-79
2021/05/20 09:40:55;;;;;;;0.95;0.60;;;14.80;1.00;;;;;;4979366;28;20027;-79
2021/05/20 09:43:27;;;;;;;1.40;1.30;;;14.90;1.00;;;;;;4991471;28;20741;-79
2021/05/20 09:45:54;;;;;;;0.80;0.60;;;14.90;99.90;;;;;;4965709;28;20415;-79
2021/05/20 09:48:28;;;;;;;1.15;0.40;;;14.80;99.90;;;;;;4972794;28;20047;-78
2021/05/20 09:50:55;;;;;;;1.80;0.73;;;14.50;1.00;;;;;;4973184;28;20047;-79
2021/05/20 09:53:23;;;;;;;0.70;0.60;;;14.40;99.90;;;;;;4976246;28;20034;-79
2021/05/20 09:55:53;;;;;;;2.03;0.50;;;14.60;1.00;;;;;;4976487;28;20027;-79
2021/05/20 09:58:22;;;;;;;0.40;0.40;;;15.00;1.00;;;;;;4974780;28;20035;-79
2021/05/20 10:00:49;;;;;;;0.82;0.50;;;15.30;4.60;;;;;;4978883;28;20035;-79
2021/05/20 10:03:15;;;;;;;1.10;0.63;;;15.30;99.90;;;;;;4980327;28;20038;-78
2021/05/20 10:05:43;;;;;;;1.42;0.52;;;15.60;99.90;;;;;;4979826;28;20019;-79
2021/05/20 10:08:15;;;;;;;0.40;0.40;;;15.70;50.40;;;;;;4989155;28;20038;-80
2021/05/20 10:10:47;;;;;;;1.27;0.50;;;16.10;99.90;;;;;;4972467;28;20027;-79
2021/05/20 10:13:15;;;;;;;3.17;0.57;;;16.40;99.90;;;;;;4968629;28;20560;-79
2021/05/20 10:15:41;;;;;;;3.55;1.00;;;16.50;99.90;;;;;;4968910;28;20036;-78
2021/05/20 10:18:12;;;;;;;0.88;0.52;;;16.80;59.80;;;;;;4975388;28;20089;-78
2021/05/20 10:20:39;;;;;;;0.82;0.50;;;17.20;1.00;;;;;;4986902;28;20086;-81
2021/05/20 10:23:14;;;;;;;1.35;0.60;;;17.10;1.00;;;;;;4979803;28;20062;-80
2021/05/20 10:25:41;;;;;;;1.13;0.70;;;16.80;99.90;;;;;;4978974;28;20476;-80
2021/05/20 10:28:08;;;;;;;1.17;0.70;;;16.20;99.90;;;;;;4972057;28;20034;-78
2021/05/20 10:30:36;;;;;;;1.02;0.60;;;16.10;99.90;;;;;;4978483;28;20029;-79
2021/05/20 10:33:03;;;;;;;3.22;0.50;;;16.20;99.90;;;;;;4971274;28;20582;-79
2021/05/20 10:35:47;;;;;;;0.77;0.50;;;16.10;99.90;;;;;;4977940;28;20050;-80
2021/05/20 10:38:28;;;;;;;1.05;0.40;;;16.00;99.90;;;;;;4975710;28;20019;-79
2021/05/20 10:41:20;;;;;;;0.85;0.50;;;16.20;99.90;;;;;;4977588;28;20522;-78
2021/05/20 10:43:49;;;;;;;1.65;0.45;;;16.10;99.90;;;;;;4979408;28;20042;-78
2021/05/20 10:46:16;;;;;;;1.42;0.50;;;16.20;99.90;;;;;;4979871;28;20022;-83
2021/05/20 10:48:53;;;;;;;0.70;0.52;;;16.40;22.90;;;;;;4981333;28;20078;-81
2021/05/20 10:51:23;;;;;;;1.20;0.57;;;17.00;1.00;;;;;;4962826;28;20024;-79
2021/05/20 10:54:03;;;;;;;1.80;0.65;;;17.50;99.90;;;;;;4977510;28;20027;-81
2021/05/20 10:56:35;;;;;;;0.75;0.60;;;16.70;99.90;;;;;;4975907;28;20033;-82
2021/05/20 10:59:12;;;;;;;1.17;0.50;;;16.50;99.90;;;;;;4980909;28;20037;-82
2021/05/20 11:01:38;;;;;;;0.50;0.43;;;16.30;99.90;;;;;;4978642;28;20031;-83
2021/05/20 11:04:05;;;;;;;1.42;0.60;;;16.10;1.00;;;;;;4967559;28;20031;-84
2021/05/20 11:06:44;;;;;;;2.50;0.75;;;16.40;1.00;;;;;;4981192;28;20061;-85
2021/05/20 11:09:16;;;;;;;1.50;0.40;;;16.30;1.00;;;;;;4978618;28;20027;-82
2021/05/20 11:11:42;;;;;;;0.65;0.40;;;16.00;1.00;;;;;;4977007;28;20054;-84
2021/05/20 11:14:13;;;;;;;1.67;0.50;;;16.10;1.00;;;;;;4982335;28;20045;-84
2021/05/20 11:16:45;;;;;;;1.95;0.55;;;15.90;1.00;;;;;;4978431;28;20391;-84
2021/05/20 11:19:23;;;;;;;0.95;0.50;;;15.60;1.00;;;;;;4975357;28;20026;-82
2021/05/20 11:22:11;;;;;;;0.77;0.50;;;15.80;13.40;;;;;;4977098;28;20042;-83
2021/05/20 11:24:41;;;;;;;0.50;0.50;;;15.90;1.00;;;;;;4979891;28;20052;-83
2021/05/20 11:27:18;;;;;;;2.83;0.88;;;15.90;1.00;;;;;;4978706;28;20391;-83
2021/05/20 11:29:47;;;;;;;1.17;0.50;;;16.00;1.00;;;;;;4977620;28;20035;-84
2021/05/20 11:37:20;;;;;;;2.03;0.60;;;16.50;99.90;;;;;;4975046;28;20023;-85
2021/05/20 11:39:46;;;;;;;7.30;1.00;;;16.70;99.90;;;;;;4973954;28;20026;-83
2021/05/20 11:42:23;;;;;;;3.35;0.55;;;16.70;99.90;;;;;;4973651;28;20027;-84
2021/05/20 11:44:49;;;;;;;5.28;0.52;;;16.60;99.90;;;;;;4975323;28;20027;-84
2021/05/20 11:47:15;;;;;;;3.95;0.60;;;16.60;99.90;;;;;;4977610;28;20106;-84
2021/05/20 11:49:44;;;;;;;0.70;0.50;;;16.40;99.90;;;;;;4969465;28;20050;-84
2021/05/20 11:52:11;;;;;;;2.85;0.50;;;16.40;99.90;;;;;;4977418;28;20037;-84
2021/05/20 11:54:45;;;;;;;1.65;0.55;;;16.60;99.90;;;;;;4977396;28;20058;-83
2021/05/20 11:57:13;;;;;;;1.30;0.40;;;16.60;99.90;;;;;;4977101;28;20035;-84
2021/05/20 11:59:42;;;;;;;0.93;0.50;;;16.60;99.90;;;;;;4980258;28;20034;-83
2021/05/20 12:02:09;;;;;;;0.30;0.30;;;16.70;99.90;;;;;;4968917;28;20035;-84
2021/05/20 12:04:35;;;;;;;0.30;0.30;;;16.80;99.90;;;;;;4974133;28;20097;-83
2021/05/20 12:07:05;;;;;;;0.40;0.40;;;16.90;99.90;;;;;;4973568;28;20051;-83
2021/05/20 12:09:34;;;;;;;1.08;0.43;;;17.60;74.40;;;;;;4977024;28;20026;-85
2021/05/20 12:12:12;;;;;;;0.40;0.40;;;18.50;1.00;;;;;;4975770;28;20388;-83
2021/05/20 12:14:39;;;;;;;0.40;0.35;;;19.60;1.00;;;;;;4978577;28;20057;-84
2021/05/20 12:17:43;;;;;;;1.42;0.40;;;19.50;1.00;;;;;;4969000;28;20029;-83
2021/05/20 12:20:10;;;;;;;1.88;0.40;;;19.20;1.00;;;;;;4974417;28;20058;-83
2021/05/20 12:22:38;;;;;;;1.23;0.68;;;18.50;99.90;;;;;;4974668;28;20102;-83
2021/05/20 12:25:11;;;;;;;0.57;0.40;;;18.10;99.90;;;;;;4977528;28;20030;-84
2021/05/20 12:27:36;;;;;;;2.08;0.30;;;18.00;99.90;;;;;;4978023;28;20018;-84
2021/05/20 12:30:04;;;;;;;3.13;0.50;;;18.00;99.90;;;;;;4976234;28;20503;-83
2021/05/20 12:32:38;;;;;;;2.55;0.77;;;17.90;99.90;;;;;;4976200;28;20023;-82
2021/05/20 12:35:10;;;;;;;2.95;0.65;;;17.60;1.00;;;;;;4978621;28;20054;-83
2021/05/20 12:37:46;;;;;;;1.17;0.38;;;17.30;1.00;;;;;;4991309;28;20022;-83
2021/05/20 12:40:16;;;;;;;2.15;0.60;;;17.20;1.00;;;;;;4983098;28;20476;-83
2021/05/20 12:42:42;;;;;;;0.60;0.50;;;17.10;1.00;;;;;;4972223;28;20031;-83
2021/05/20 12:45:10;;;;;;;1.90;0.52;;;16.90;1.00;;;;;;4969404;28;20082;-83
2021/05/20 12:47:46;;;;;;;1.52;0.55;;;17.00;1.00;;;;;;4975605;28;20015;-83
2021/05/20 12:50:11;;;;;;;0.88;0.38;;;17.50;1.00;;;;;;4980581;28;20023;-83
2021/05/20 12:52:58;;;;;;;0.40;0.40;;;17.50;1.00;;;;;;4987126;28;20047;-83
2021/05/20 12:55:41;;;;;;;0.88;0.50;;;17.30;1.00;;;;;;4994809;28;20019;-84
2021/05/20 12:58:08;;;;;;;0.47;0.30;;;17.00;1.00;;;;;;4994874;28;20027;-83
2021/05/20 13:01:00;;;;;;;1.20;0.57;;;17.10;1.00;;;;;;5001520;28;20062;-84
2021/05/20 13:03:39;;;;;;;0.75;0.55;;;17.30;1.00;;;;;;4999158;28;20031;-83
2021/05/20 13:06:05;;;;;;;0.38;0.35;;;17.80;1.00;;;;;;4991909;28;20039;-83